Time;durP1;ratioP1;P1;durP2;ratioP2;P2;SDS_P1;SDS_P2;PMS_P1;PMS_P2;Temp;Humidity;BMP_temperature;BMP_pressure;BME280_temperature;BME280_humidity;BME280_pressure;Samples;Min_cycle;Max_cycle;Signal;HPM_P1;HPM_P2
2023/10/11 00:01:50;;;;;;;1.42;1.33;;;;;;;3.72;73.69;96404.09;6271053;28;20040;-67
2023/10/11 00:04:51;;;;;;;1.60;1.50;;;;;;;3.52;74.26;96402.38;6252907;28;20048;-67
2023/10/11 00:07:57;;;;;;;1.27;1.17;;;;;;;3.60;74.31;96408.09;6270105;28;20056;-66
2023/10/11 00:11:09;;;;;;;1.88;1.38;;;;;;;3.56;74.32;96401.31;6270927;28;20110;-66
2023/10/11 00:14:11;;;;;;;1.25;1.15;;;;;;;3.53;73.78;96385.00;6269928;28;20052;-66
2023/10/11 00:17:14;;;;;;;1.90;1.80;;;;;;;3.72;73.77;96408.47;6270862;28;20064;-67
2023/10/11 00:21:09;;;;;;;1.88;1.70;;;;;;;3.70;73.56;96415.47;6270864;28;20037;-67
2023/10/11 00:23:48;;;;;;;1.50;1.40;;;;;;;3.81;72.88;96419.28;6257943;28;20115;-66
2023/10/11 00:26:50;;;;;;;2.78;2.15;;;;;;;3.72;73.17;96400.66;6270459;28;20048;-65
2023/10/11 00:29:54;;;;;;;3.17;1.85;;;;;;;3.78;72.98;96413.38;6250795;28;20053;-67
2023/10/11 00:32:57;;;;;;;1.55;1.45;;;;;;;3.77;72.88;96411.69;6269918;28;20055;-67
2023/10/11 00:36:04;;;;;;;1.33;1.23;;;;;;;3.72;72.83;96400.66;6270355;28;20415;-67
2023/10/11 00:39:07;;;;;;;1.50;1.40;;;;;;;3.56;73.08;96403.91;6270247;28;20060;-66
2023/10/11 00:42:10;;;;;;;1.50;1.40;;;;;;;3.52;73.22;96407.59;6268773;28;20052;-67
2023/10/11 00:45:16;;;;;;;1.23;1.13;;;;;;;3.68;72.61;96412.09;6252224;28;20063;-67
2023/10/11 00:48:19;;;;;;;1.23;1.13;;;;;;;3.66;72.05;96412.19;6269703;28;20056;-67
2023/10/11 00:51:26;;;;;;;1.30;1.20;;;;;;;3.74;71.78;96422.25;6274316;28;20055;-67
2023/10/11 00:54:27;;;;;;;1.60;1.50;;;;;;;3.67;71.76;96418.22;6294209;28;20044;-67
2023/10/11 00:57:30;;;;;;;0.88;0.88;;;;;;;3.77;71.44;96435.97;6294024;28;20606;-68
2023/10/11 01:00:36;;;;;;;1.00;1.00;;;;;;;3.78;71.44;96429.00;6276507;28;20049;-67
2023/10/11 01:03:41;;;;;;;1.30;1.20;;;;;;;3.74;71.41;96433.50;6294565;28;20069;-66
2023/10/11 01:06:42;;;;;;;1.50;1.40;;;;;;;3.72;71.36;96432.72;6293613;28;20052;-66
2023/10/11 01:09:44;;;;;;;1.27;1.15;;;;;;;3.58;71.77;96422.06;6276058;28;20419;-67
2023/10/11 01:12:46;;;;;;;1.52;1.42;;;;;;;3.63;71.48;96434.88;6293873;28;20040;-66
2023/10/11 01:15:50;;;;;;;2.15;1.63;;;;;;;3.65;71.93;96446.06;6293677;28;20048;-66
2023/10/11 01:18:52;;;;;;;1.52;1.30;;;;;;;3.67;71.76;96446.84;6293870;28;20052;-67
2023/10/11 01:21:59;;;;;;;1.38;1.27;;;;;;;3.59;72.05;96444.56;6293405;28;20143;-67
2023/10/11 01:25:04;;;;;;;1.95;1.77;;;;;;;3.51;72.44;96436.25;6294439;28;20048;-67
2023/10/11 01:28:08;;;;;;;1.60;1.50;;;;;;;3.59;72.33;96444.56;6293623;28;20048;-67
2023/10/11 01:31:18;;;;;;;1.38;1.27;;;;;;;3.70;72.20;96441.50;6294482;28;20056;-67
2023/10/11 01:34:20;;;;;;;1.88;1.77;;;;;;;3.62;72.46;96454.84;6275540;28;20060;-67
2023/10/11 01:37:26;;;;;;;2.17;1.50;;;;;;;3.72;72.40;96450.09;6293039;28;20048;-67
2023/10/11 01:40:31;;;;;;;1.50;1.40;;;;;;;3.78;71.85;96450.66;6292999;28;20101;-67
2023/10/11 01:43:35;;;;;;;1.88;1.63;;;;;;;3.88;71.16;96445.91;6293908;28;20076;-66
2023/10/11 01:46:39;;;;;;;1.40;1.30;;;;;;;4.01;70.63;96447.00;6293841;28;20047;-69
2023/10/11 01:49:41;;;;;;;1.27;1.10;;;;;;;4.02;70.60;96448.72;6275720;28;20411;-68
2023/10/11 01:52:47;;;;;;;1.52;1.42;;;;;;;3.93;71.01;96456.06;6294014;28;20040;-67
2023/10/11 01:55:54;;;;;;;1.80;1.70;;;;;;;3.82;71.54;96464.34;6298448;28;20056;-67
2023/10/11 01:59:01;;;;;;;1.75;1.65;;;;;;;3.77;71.89;96461.97;6298646;28;20512;-67
2023/10/11 02:02:09;;;;;;;1.70;1.55;;;;;;;3.78;72.13;96465.41;6281713;28;20702;-67
2023/10/11 02:05:17;;;;;;;1.70;1.60;;;;;;;3.77;72.03;96463.75;6298756;28;20045;-67
2023/10/11 02:08:24;;;;;;;1.55;1.45;;;;;;;3.79;71.92;96456.69;6297983;28;20060;-66
2023/10/11 02:11:29;;;;;;;1.05;1.00;;;;;;;3.65;72.66;96459.91;6298565;28;20492;-67
2023/10/11 02:14:37;;;;;;;1.25;1.15;;;;;;;3.58;72.96;96461.94;6298333;28;20119;-67
2023/10/11 02:17:47;;;;;;;2.58;1.88;;;;;;;3.71;72.80;96475.28;6298310;28;20095;-67
2023/10/11 02:20:48;;;;;;;2.10;1.95;;;;;;;3.70;72.99;96467.50;6297586;28;20538;-67
2023/10/11 02:23:50;;;;;;;2.05;1.90;;;;;;;3.73;73.06;96473.41;6279591;28;20131;-67
2023/10/11 02:26:54;;;;;;;2.33;1.77;;;;;;;3.73;73.08;96475.19;6297309;28;20045;-67
2023/10/11 02:29:56;;;;;;;2.28;2.00;;;;;;;3.67;72.89;96491.06;6279742;28;20060;-66
2023/10/11 02:33:07;;;;;;;1.88;1.77;;;;;;;3.72;72.98;96489.13;6297707;28;20040;-67
2023/10/11 02:36:18;;;;;;;2.72;2.17;;;;;;;3.76;72.94;96494.09;6296761;28;20052;-66
2023/10/11 02:39:31;;;;;;;2.15;1.98;;;;;;;3.70;73.24;96491.78;6296932;28;20049;-67
2023/10/11 02:42:36;;;;;;;1.83;1.73;;;;;;;3.72;72.99;96496.94;6297255;28;20040;-67
2023/10/11 02:45:38;;;;;;;2.25;2.05;;;;;;;3.67;73.19;96506.69;6296610;28;20048;-67
2023/10/11 02:48:48;;;;;;;1.95;1.70;;;;;;;3.77;72.96;96506.22;6297235;28;20407;-67
2023/10/11 02:51:53;;;;;;;4.47;1.83;;;;;;;3.75;72.93;96522.81;6269374;28;20142;-67
2023/10/11 02:54:59;;;;;;;1.60;1.48;;;;;;;3.77;73.01;96521.00;6255368;28;20494;-67
2023/10/11 02:58:06;;;;;;;1.23;1.13;;;;;;;3.83;72.41;96518.13;6272533;28;20567;-67
2023/10/11 03:01:20;;;;;;;1.77;1.67;;;;;;;3.91;72.07;96526.44;6271917;28;20045;-67
2023/10/11 03:04:27;;;;;;;1.80;1.70;;;;;;;3.91;72.27;96523.84;6271137;28;20436;-67
2023/10/11 03:07:33;;;;;;;2.70;2.30;;;;;;;3.78;72.79;96527.88;6271658;28;20056;-67
2023/10/11 03:10:43;;;;;;;1.80;1.70;;;;;;;3.69;73.31;96530.88;6271207;28;20045;-67
2023/10/11 03:13:50;;;;;;;1.85;1.65;;;;;;;3.71;74.03;96540.31;6272253;28;20045;-67
2023/10/11 03:16:56;;;;;;;1.25;1.15;;;;;;;3.84;73.53;96543.22;6271629;28;20420;-67
2023/10/11 03:20:06;;;;;;;2.13;1.55;;;;;;;3.84;73.46;96540.63;6272173;28;20045;-66
2023/10/11 03:23:20;;;;;;;1.02;0.95;;;;;;;3.85;73.32;96546.66;6270988;28;20056;-66
2023/10/11 03:26:31;;;;;;;1.27;1.17;;;;;;;4.09;72.12;96556.03;6271089;28;20077;-67
2023/10/11 03:29:35;;;;;;;1.60;1.50;;;;;;;3.95;72.46;96564.44;6271050;28;20053;-67
2023/10/11 03:32:41;;;;;;;9.38;4.97;;;;;;;3.96;72.27;96566.13;6270799;28;20047;-67
2023/10/11 03:35:44;;;;;;;1.92;1.55;;;;;;;3.97;72.05;96560.00;6271048;28;20044;-66
2023/10/11 03:38:51;;;;;;;1.70;1.60;;;;;;;3.85;72.16;96570.97;6271510;28;20036;-67
2023/10/11 03:42:06;;;;;;;1.95;1.73;;;;;;;3.80;71.66;96571.16;6271684;28;20504;-68
2023/10/11 03:45:08;;;;;;;2.38;1.60;;;;;;;3.77;71.71;96583.44;6270771;28;20061;-67
2023/10/11 03:48:10;;;;;;;1.63;1.52;;;;;;;3.89;70.81;96584.69;6270578;28;20512;-68
2023/10/11 03:51:19;;;;;;;1.98;1.77;;;;;;;3.99;70.39;96588.56;6274906;28;20056;-68
2023/10/11 03:54:23;;;;;;;1.65;1.45;;;;;;;4.36;68.98;96603.44;6296048;28;20048;-66
2023/10/11 03:57:25;;;;;;;1.17;1.05;;;;;;;4.59;67.54;96588.53;6294977;28;20182;-67
2023/10/11 04:00:28;;;;;;;0.77;0.75;;;;;;;4.73;66.97;96597.41;6294942;28;20036;-68
2023/10/11 04:03:34;;;;;;;1.05;1.00;;;;;;;4.80;66.34;96590.13;6295922;28;20051;-67
2023/10/11 04:06:38;;;;;;;0.90;0.90;;;;;;;4.83;66.74;96602.19;6296062;28;20044;-66
2023/10/11 04:09:46;;;;;;;1.08;0.98;;;;;;;4.97;65.70;96612.81;6294436;28;20057;-67
2023/10/11 04:12:47;;;;;;;0.77;0.77;;;;;;;5.17;64.95;96611.88;6294835;28;20048;-66
2023/10/11 04:15:52;;;;;;;1.15;1.05;;;;;;;5.28;64.19;96603.53;6293511;28;20041;-66
2023/10/11 04:18:54;;;;;;;0.95;0.82;;;;;;;5.37;63.99;96619.59;6294746;28;20055;-67
2023/10/11 04:21:56;;;;;;;0.70;0.70;;;;;;;5.50;63.23;96639.91;6294892;28;20048;-68
2023/10/11 04:25:06;;;;;;;0.75;0.75;;;;;;;5.42;63.75;96642.03;6294260;28;20063;-67
2023/10/11 04:28:12;;;;;;;1.05;1.05;;;;;;;5.52;63.48;96638.03;6294367;28;20125;-65
2023/10/11 04:31:31;;;;;;;1.00;1.00;;;;;;;5.76;63.03;96615.97;6277646;28;20048;-66
2023/10/11 04:34:38;;;;;;;4.25;1.15;;;;;;;6.12;61.23;96622.06;6294548;28;20048;-67
2023/10/11 04:37:50;;;;;;;0.73;0.60;;;;;;;6.16;60.04;96619.19;6295166;28;20041;-67
2023/10/11 04:40:52;;;;;;;0.30;0.30;;;;;;;5.98;59.85;96614.94;6295178;28;20039;-67
2023/10/11 04:44:04;;;;;;;0.28;0.28;;;;;;;5.48;61.81;96631.28;6294731;28;20178;-68
2023/10/11 04:47:06;;;;;;;0.22;0.22;;;;;;;5.01;63.99;96631.75;6276900;28;20507;-68
2023/10/11 04:50:11;;;;;;;0.38;0.30;;;;;;;4.83;65.23;96639.53;6294150;28;20432;-66
2023/10/11 04:53:21;;;;;;;0.50;0.50;;;;;;;5.07;64.53;96632.34;6293898;28;20053;-66
2023/10/11 04:59:46;;;;;;;1.13;1.02;;;;;;;5.50;63.54;96643.34;6294081;28;20051;-67
2023/10/11 05:02:58;;;;;;;3.97;3.10;;;;;;;5.73;62.59;96642.22;6294127;28;20072;-66
2023/10/11 05:05:59;;;;;;;1.63;1.15;;;;;;;5.90;62.32;96627.50;6293677;28;20056;-67
2023/10/11 05:09:44;;;;;;;0.40;0.40;;;;;;;6.22;61.58;96645.00;6293119;28;20056;-67
2023/10/11 05:12:27;;;;;;;0.40;0.40;;;;;;;6.49;60.02;96637.50;6284990;28;20048;-66
2023/10/11 05:15:42;;;;;;;0.35;0.35;;;;;;;6.62;57.78;96658.63;6293866;28;20075;-67
2023/10/11 05:18:43;;;;;;;1.23;0.75;;;;;;;6.70;58.10;96637.31;6293766;28;20052;-66
2023/10/11 05:21:51;;;;;;;0.40;0.40;;;;;;;7.03;57.05;96647.72;6275975;28;20396;-67
2023/10/11 05:28:27;;;;;;;0.20;0.20;;;;;;;7.80;53.50;96648.69;6293856;28;20040;-67
2023/10/11 05:31:44;;;;;;;0.50;0.50;;;;;;;8.23;52.89;96664.53;6293762;28;20415;-67
2023/10/11 05:35:06;;;;;;;0.65;0.50;;;;;;;9.67;50.62;96647.78;6294307;28;20139;-66
2023/10/11 05:51:39;;;;;;;1.00;0.85;;;;;;;20.10;28.36;96672.72;6293453;28;20060;-67
2023/10/11 05:54:42;;;;;;;1.60;0.20;;;;;;;19.57;27.56;96665.84;6292929;28;20049;-66
2023/10/11 05:57:44;;;;;;;0.32;0.20;;;;;;;17.42;29.73;96658.03;6293571;28;20036;-67
2023/10/11 06:00:53;;;;;;;1.63;0.70;;;;;;;17.88;30.21;96663.41;6293907;28;20419;-67
2023/10/11 06:03:55;;;;;;;0.70;0.55;;;;;;;18.64;29.60;96673.59;6293686;28;20127;-67
2023/10/11 06:07:00;;;;;;;0.80;0.30;;;;;;;19.51;27.94;96674.50;6293717;28;20135;-66
2023/10/11 06:10:07;;;;;;;0.20;0.20;;;;;;;20.69;26.96;96674.47;6275878;28;20048;-66
2023/10/11 06:13:15;;;;;;;1.52;0.40;;;;;;;21.00;26.70;96683.47;6293133;28;20056;-66
2023/10/11 06:16:22;;;;;;;0.20;0.10;;;;;;;22.47;24.42;96691.97;6292602;28;20553;-67
2023/10/11 06:19:27;;;;;;;0.25;0.10;;;;;;;21.44;24.78;96696.47;6292492;28;20049;-66
2023/10/11 06:22:30;;;;;;;0.10;0.00;;;;;;;21.85;24.84;96696.31;6292789;28;20044;-67
2023/10/11 06:25:49;;;;;;;0.13;0.10;;;;;;;21.78;24.88;96689.16;6293453;28;20415;-67
2023/10/11 06:29:02;;;;;;;0.55;0.20;;;;;;;23.50;23.41;96694.09;6293311;28;20040;-66
2023/10/11 06:32:11;;;;;;;0.20;0.20;;;;;;;23.81;22.82;96701.13;6275685;28;20095;-67
2023/10/11 06:35:23;;;;;;;0.70;0.20;;;;;;;23.92;22.74;96690.78;6292623;28;20048;-66
2023/10/11 06:38:30;;;;;;;0.38;0.03;;;;;;;24.90;21.01;96698.44;6293667;28;20041;-67
2023/10/11 06:41:45;;;;;;;1.08;0.13;;;;;;;24.06;20.84;96704.34;6296981;28;20194;-67
2023/10/11 06:44:57;;;;;;;0.10;0.00;;;;;;;24.19;20.70;96729.53;6296932;28;20054;-66
2023/10/11 06:48:08;;;;;;;0.10;0.10;;;;;;;23.79;20.72;96713.94;6298121;28;20418;-65
2023/10/11 06:51:13;;;;;;;;;;;;;;;25.37;19.99;96727.44;6298019;28;20057;-67
2023/10/11 06:54:20;;;;;;;0.10;0.10;;;;;;;24.71;20.31;96727.66;6297570;28;19920;-66
2023/10/11 06:57:25;;;;;;;0.80;0.60;;;;;;;25.50;19.30;96735.59;6297367;28;20415;-66
2023/10/11 07:00:36;;;;;;;1.08;0.82;;;;;;;24.58;19.82;96735.59;6297325;28;20149;-66
2023/10/11 07:03:40;;;;;;;0.20;0.20;;;;;;;24.39;19.40;96728.94;6297096;28;20044;-66
2023/10/11 07:06:42;;;;;;;0.30;0.22;;;;;;;24.49;19.49;96747.50;6296307;28;20048;-67
2023/10/11 07:09:56;;;;;;;0.13;0.10;;;;;;;24.12;19.57;96720.59;6297258;28;20040;-67
2023/10/11 07:13:05;;;;;;;0.08;0.05;;;;;;;24.16;19.89;96737.16;6278751;28;20048;-67
2023/10/11 07:16:08;;;;;;;0.57;0.10;;;;;;;23.97;19.72;96733.19;6297064;28;20036;-67
2023/10/11 07:19:15;;;;;;;0.13;0.10;;;;;;;25.76;18.80;96745.72;6296964;28;20415;-67
2023/10/11 07:22:20;;;;;;;0.10;0.10;;;;;;;27.29;17.26;96742.75;6297370;28;20498;-66
2023/10/11 07:25:36;;;;;;;0.38;0.20;;;;;;;28.01;16.49;96759.91;6296279;28;20055;-66
2023/10/11 07:28:38;;;;;;;0.30;0.20;;;;;;;28.40;16.32;96747.28;6296118;28;20496;-66
2023/10/11 07:31:51;;;;;;;0.10;0.10;;;;;;;28.45;15.81;96766.47;6296839;28;20040;-67
2023/10/11 07:34:54;;;;;;;0.00;0.00;;;;;;;28.65;15.88;96760.94;6295610;28;20052;-67
2023/10/11 07:37:56;;;;;;;0.10;0.10;;;;;;;29.05;15.60;96745.28;6296480;28;20357;-66
2023/10/11 07:41:05;;;;;;;0.00;0.00;;;;;;;28.34;16.02;96757.09;6295078;28;20048;-66
2023/10/11 07:44:07;;;;;;;0.10;0.00;;;;;;;27.20;16.17;96746.66;6295817;28;20127;-68
2023/10/11 07:47:15;;;;;;;0.10;0.08;;;;;;;26.76;16.56;96751.59;6296473;28;20309;-66
2023/10/11 07:50:22;;;;;;;0.00;0.00;;;;;;;26.85;16.81;96755.75;6296014;28;20051;-67
2023/10/11 07:53:26;;;;;;;0.10;0.03;;;;;;;26.91;16.42;96737.06;6295992;28;20060;-67
2023/10/11 07:56:27;;;;;;;0.00;0.00;;;;;;;24.63;17.93;96750.16;6295589;28;20523;-67
2023/10/11 07:59:31;;;;;;;0.10;0.10;;;;;;;23.06;20.23;96745.88;6296070;28;20040;-66
2023/10/11 08:02:41;;;;;;;0.35;0.17;;;;;;;23.19;20.61;96761.38;6294050;28;20048;-66
2023/10/11 08:05:46;;;;;;;0.20;0.20;;;;;;;20.38;23.08;96752.59;6295041;28;20194;-67
2023/10/11 08:09:00;;;;;;;0.20;0.20;;;;;;;17.12;26.27;96759.31;6295455;28;20045;-67
2023/10/11 08:12:07;;;;;;;0.22;0.20;;;;;;;14.01;30.63;96749.97;6294960;28;20056;-68
2023/10/11 08:15:11;;;;;;;0.30;0.20;;;;;;;12.98;32.74;96756.19;6295288;28;20258;-67
2023/10/11 08:18:16;;;;;;;0.38;0.20;;;;;;;12.01;34.96;96749.34;6277758;28;20396;-67
2023/10/11 08:21:18;;;;;;;0.50;0.30;;;;;;;10.71;36.41;96751.38;6294703;28;20040;-66
2023/10/11 08:24:25;;;;;;;0.32;0.30;;;;;;;10.49;36.61;96753.75;6295404;28;20118;-68
2023/10/11 08:27:29;;;;;;;0.43;0.30;;;;;;;11.24;35.59;96754.78;6294395;28;20049;-67
2023/10/11 08:30:31;;;;;;;0.70;0.40;;;;;;;14.10;32.74;96762.47;6294161;28;20423;-66
2023/10/11 08:33:35;;;;;;;;;;;;;;;17.66;27.95;96766.59;6295762;28;20459;-66
2023/10/11 08:36:37;;;;;;;2.20;1.08;;;;;;;20.68;23.92;96777.09;6295117;28;19916;-66
2023/10/11 08:39:44;;;;;;;;;;;;;;;22.69;21.77;96779.66;6295515;28;20626;-66
2023/10/11 08:42:49;;;;;;;1.02;0.40;;;;;;;23.23;20.98;96827.91;6295185;28;19920;-67
2023/10/11 08:46:02;;;;;;;0.10;0.10;;;;;;;23.53;19.33;96793.09;6277234;28;20040;-67
2023/10/11 08:49:04;;;;;;;0.20;0.20;;;;;;;24.18;18.64;96799.66;6295085;28;20036;-67
2023/10/11 08:52:05;;;;;;;0.40;0.35;;;;;;;23.30;19.48;96793.97;6294246;28;20063;-67
2023/10/11 08:55:11;;;;;;;0.17;0.08;;;;;;;23.73;19.30;96796.94;6276257;28;20511;-67
2023/10/11 08:58:23;;;;;;;0.10;0.10;;;;;;;20.38;21.35;96814.06;6293772;28;20048;-67
2023/10/11 09:01:36;;;;;;;0.20;0.17;;;;;;;16.07;26.00;96789.97;6293754;28;20056;-66
2023/10/11 09:05:28;;;;;;;0.35;0.20;;;;;;;15.61;27.06;96786.03;6293331;28;20060;-66
2023/10/11 09:08:32;;;;;;;0.20;0.15;;;;;;;14.35;28.67;96783.31;6252264;28;20573;-67
2023/10/11 09:11:33;;;;;;;0.32;0.30;;;;;;;12.97;31.57;96798.59;6293663;28;20423;-67
2023/10/11 09:14:36;;;;;;;0.35;0.30;;;;;;;12.25;33.45;96778.38;6293412;28;20054;-67
2023/10/11 09:17:39;;;;;;;0.60;0.20;;;;;;;11.84;34.38;96779.53;6293786;28;20056;-67
2023/10/11 09:21:09;;;;;;;0.43;0.30;;;;;;;11.64;35.10;96804.69;6292469;28;20044;-67
2023/10/11 09:24:26;;;;;;;0.30;0.30;;;;;;;11.18;36.17;96804.38;6293770;28;20041;-67
2023/10/11 09:27:50;;;;;;;0.52;0.40;;;;;;;10.69;37.47;96805.06;6293491;28;20056;-67
2023/10/11 09:31:20;;;;;;;0.35;0.28;;;;;;;10.50;37.63;96826.47;6294155;28;20037;-66
2023/10/11 09:34:29;;;;;;;0.32;0.30;;;;;;;10.31;38.57;96800.53;6293140;28;20055;-67
2023/10/11 09:37:36;;;;;;;0.40;0.30;;;;;;;10.74;38.18;96818.75;6293934;28;20483;-66
2023/10/11 09:40:40;;;;;;;1.00;0.40;;;;;;;13.44;33.89;96824.03;6275095;28;20048;-67
2023/10/11 09:43:43;;;;;;;0.30;0.30;;;;;;;15.90;30.20;96828.63;6275900;28;20139;-67
2023/10/11 09:46:48;;;;;;;0.43;0.40;;;;;;;17.42;27.45;96838.88;6292942;28;20059;-66
2023/10/11 09:49:53;;;;;;;0.38;0.20;;;;;;;18.38;25.94;96828.91;6293751;28;20037;-66
2023/10/11 09:53:00;;;;;;;1.10;0.20;;;;;;;19.24;24.47;96841.75;6293533;28;20053;-67
2023/10/11 09:56:27;;;;;;;0.85;0.22;;;;;;;20.39;23.02;96858.50;6293430;28;20139;-66
2023/10/11 09:59:46;;;;;;;0.20;0.20;;;;;;;19.97;22.62;96851.28;6293003;28;20052;-67
2023/10/11 10:02:54;;;;;;;0.20;0.10;;;;;;;19.49;22.80;96852.63;6293476;28;20044;-66
2023/10/11 10:06:08;;;;;;;0.20;0.20;;;;;;;19.12;22.75;96852.81;6293226;28;20056;-66
2023/10/11 10:09:24;;;;;;;1.15;0.30;;;;;;;17.68;24.46;96859.56;6293012;28;20044;-67
2023/10/11 10:12:46;;;;;;;0.65;0.35;;;;;;;18.12;24.13;96854.56;6293567;28;20125;-66
2023/10/11 10:15:52;;;;;;;1.17;0.40;;;;;;;19.68;22.74;96865.81;6281059;28;20041;-67
2023/10/11 10:19:23;;;;;;;0.38;0.28;;;;;;;19.83;22.27;96860.72;6297817;28;20044;-67
2023/10/11 10:22:27;;;;;;;0.98;0.80;;;;;;;20.10;22.01;96856.22;6297570;28;20431;-67
2023/10/11 10:25:30;;;;;;;1.77;0.77;;;;;;;20.87;21.45;96859.69;6297387;28;20045;-67
2023/10/11 10:28:32;;;;;;;;;;;;;;;21.87;21.06;96855.00;6298079;28;20143;-69
2023/10/11 10:31:53;;;;;;;0.70;0.30;;;;;;;20.91;21.04;96853.00;6298260;28;19920;-67
2023/10/11 10:35:19;;;;;;;0.20;0.20;;;;;;;19.92;21.56;96864.28;6297144;28;20052;-68
2023/10/11 10:38:22;;;;;;;0.20;0.20;;;;;;;16.71;24.54;96851.63;6297122;28;20045;-67
2023/10/11 10:41:29;;;;;;;0.60;0.40;;;;;;;14.36;27.45;96850.34;6296952;28;20086;-67
2023/10/11 10:44:47;;;;;;;0.20;0.20;;;;;;;12.70;30.01;96852.47;6296910;28;20079;-67
2023/10/11 10:48:10;;;;;;;0.75;0.30;;;;;;;11.78;31.93;96848.53;6297491;28;20036;-67
2023/10/11 10:51:11;;;;;;;0.80;0.57;;;;;;;11.68;32.93;96848.31;6296303;28;20052;-68
2023/10/11 10:54:14;;;;;;;0.70;0.50;;;;;;;12.43;32.28;96871.19;6296726;28;20058;-67
2023/10/11 10:57:26;;;;;;;0.88;0.57;;;;;;;14.40;29.94;96866.81;6297436;28;20048;-68
2023/10/11 11:00:40;;;;;;;0.40;0.40;;;;;;;15.76;27.48;96884.69;6296002;28;20056;-67
2023/10/11 11:03:45;;;;;;;0.47;0.47;;;;;;;16.01;26.67;96867.50;6296375;28;20052;-67
2023/10/11 11:06:48;;;;;;;0.25;0.20;;;;;;;14.75;27.73;96864.84;6296588;28;20052;-67
2023/10/11 11:09:54;;;;;;;;;;;;;;;14.88;27.79;96900.91;6279131;28;20058;-68
2023/10/11 11:12:55;;;;;;;0.70;0.40;;;;;;;13.45;29.67;96886.53;6296491;28;19924;-68
2023/10/11 11:16:00;;;;;;;0.47;0.40;;;;;;;11.34;32.96;96891.09;6296865;28;20048;-67
2023/10/11 11:19:16;;;;;;;0.30;0.30;;;;;;;9.96;35.71;96884.22;6295912;28;20036;-68
2023/10/11 11:22:22;;;;;;;0.57;0.40;;;;;;;9.34;37.08;96877.47;6296339;28;20049;-68
2023/10/11 11:25:28;;;;;;;1.30;0.65;;;;;;;8.59;38.71;96873.13;6296243;28;20063;-67
2023/10/11 11:28:39;;;;;;;0.50;0.50;;;;;;;8.44;39.30;96891.44;6296708;28;20060;-67
2023/10/11 11:31:57;;;;;;;0.60;0.50;;;;;;;10.49;36.20;96893.19;6296382;28;20044;-67
2023/10/11 11:35:10;;;;;;;0.70;0.40;;;;;;;11.52;34.52;96881.97;6296793;28;20036;-67
2023/10/11 11:38:20;;;;;;;0.60;0.53;;;;;;;12.26;33.24;96892.69;6295843;28;20041;-68
2023/10/11 11:41:23;;;;;;;0.68;0.68;;;;;;;12.65;32.32;96912.69;6295365;28;20063;-68
2023/10/11 11:44:31;;;;;;;0.40;0.40;;;;;;;12.51;32.21;96897.88;6278106;28;20139;-68
2023/10/11 11:47:34;;;;;;;0.52;0.50;;;;;;;12.74;32.07;96913.84;6296100;28;20062;-68
2023/10/11 11:50:38;;;;;;;0.60;0.45;;;;;;;12.85;31.97;96921.81;6296006;28;20045;-68
2023/10/11 11:53:44;;;;;;;0.57;0.55;;;;;;;12.40;32.52;96897.81;6295817;28;20152;-67
2023/10/11 11:56:48;;;;;;;1.08;0.70;;;;;;;12.21;32.85;96897.44;6295470;28;20044;-67
2023/10/11 11:59:49;;;;;;;4.00;1.15;;;;;;;12.04;33.07;96911.81;6295396;28;20044;-67
2023/10/11 12:02:58;;;;;;;5.25;2.17;;;;;;;11.75;33.76;96916.41;6296103;28;20499;-69
2023/10/11 12:06:00;;;;;;;5.28;2.10;;;;;;;10.74;35.28;96919.59;6294758;28;20055;-68
2023/10/11 12:09:04;;;;;;;3.45;1.85;;;;;;;9.66;37.37;96925.44;6294626;28;20048;-68
2023/10/11 12:12:06;;;;;;;2.28;1.40;;;;;;;8.78;39.01;96926.25;6294369;28;20427;-68
2023/10/11 12:15:16;;;;;;;0.88;0.63;;;;;;;8.33;39.90;96925.22;6277171;28;20059;-67
2023/10/11 12:18:33;;;;;;;1.92;1.02;;;;;;;8.00;41.10;96918.25;6295349;28;20052;-68
2023/10/11 12:21:40;;;;;;;0.60;0.50;;;;;;;7.69;41.65;96934.75;6295357;28;20044;-68
2023/10/11 12:24:46;;;;;;;0.50;0.50;;;;;;;7.75;41.53;96944.91;6295200;28;20047;-67
2023/10/11 12:27:47;;;;;;;0.70;0.70;;;;;;;7.47;42.06;96948.09;6294231;28;20509;-67
2023/10/11 12:30:50;;;;;;;0.63;0.63;;;;;;;7.03;43.00;96951.22;6294155;28;20048;-67
2023/10/11 12:33:54;;;;;;;0.98;0.80;;;;;;;6.90;43.94;96958.78;6294149;28;20045;-67
2023/10/11 12:36:55;;;;;;;2.35;0.80;;;;;;;6.62;44.32;96961.91;6293764;28;20044;-67
2023/10/11 12:39:57;;;;;;;0.85;0.70;;;;;;;6.33;45.36;96965.03;6293871;28;20047;-67
2023/10/11 12:42:58;;;;;;;1.33;0.95;;;;;;;6.08;46.55;96968.78;6294050;28;20044;-67
2023/10/11 12:46:00;;;;;;;1.13;0.80;;;;;;;6.00;46.78;96969.13;6294281;28;20057;-68
2023/10/11 12:49:12;;;;;;;1.00;0.85;;;;;;;6.04;47.12;96970.69;6293878;28;20423;-67
2023/10/11 12:52:18;;;;;;;1.63;1.40;;;;;;;5.89;47.67;96970.47;6294301;28;20063;-67
2023/10/11 12:55:20;;;;;;;2.08;1.42;;;;;;;5.65;48.00;96980.25;6276079;28;20136;-67
2023/10/11 12:58:27;;;;;;;1.15;0.98;;;;;;;5.75;48.63;96979.78;6294484;28;20150;-66
2023/10/11 13:01:40;;;;;;;1.50;1.10;;;;;;;5.59;49.25;96984.81;6294532;28;20036;-67
2023/10/11 13:04:46;;;;;;;1.35;0.95;;;;;;;5.49;49.58;96978.31;6293249;28;20430;-68
2023/10/11 13:07:51;;;;;;;1.63;1.10;;;;;;;5.46;49.80;96986.25;6293912;28;20048;-68
2023/10/11 13:10:55;;;;;;;1.00;0.90;;;;;;;5.57;49.96;97002.31;6293384;28;20057;-68
2023/10/11 13:14:05;;;;;;;1.15;0.90;;;;;;;5.43;49.96;96986.38;6293099;28;20694;-67
2023/10/11 13:17:15;;;;;;;1.50;1.10;;;;;;;5.45;50.49;97007.22;6293863;28;20052;-67
2023/10/11 13:20:19;;;;;;;5.18;1.20;;;;;;;5.40;50.83;96995.19;6294304;28;20044;-68
2023/10/11 13:23:28;;;;;;;1.67;1.13;;;;;;;5.40;50.75;96995.19;6293455;28;20040;-68
2023/10/11 13:26:32;;;;;;;1.85;1.25;;;;;;;5.32;51.26;97012.94;6293369;28;20530;-67
2023/10/11 13:29:34;;;;;;;2.97;1.67;;;;;;;5.27;51.35;97004.47;6292917;28;20041;-67
2023/10/11 13:32:38;;;;;;;2.00;1.70;;;;;;;5.28;51.86;97024.41;6292670;28;20044;-67
2023/10/11 13:35:42;;;;;;;1.13;1.02;;;;;;;5.19;52.32;97027.41;6293837;28;20048;-66
2023/10/11 13:38:46;;;;;;;2.92;1.63;;;;;;;5.14;52.66;97027.59;6292908;28;20052;-68
2023/10/11 13:41:52;;;;;;;1.40;1.08;;;;;;;5.07;53.09;97025.31;6293853;28;20041;-68
2023/10/11 13:44:56;;;;;;;1.20;1.10;;;;;;;5.00;53.50;97026.44;6293993;28;20041;-67
2023/10/11 13:47:57;;;;;;;2.38;1.48;;;;;;;5.00;53.35;97036.88;6278420;28;20434;-68
2023/10/11 13:51:03;;;;;;;2.42;1.42;;;;;;;4.93;53.77;97042.34;6301472;28;20040;-68
2023/10/11 13:54:18;;;;;;;1.67;1.55;;;;;;;4.90;54.04;97046.84;6302113;28;20048;-68
2023/10/11 13:57:21;;;;;;;1.85;1.50;;;;;;;4.87;54.22;97045.19;6301236;28;20754;-67
2023/10/11 14:03:49;;;;;;;1.30;1.05;;;;;;;4.72;54.95;97053.59;6300862;28;20067;-68
2023/10/11 14:07:17;;;;;;;2.35;1.10;;;;;;;4.53;55.48;97052.59;6301502;28;20450;-68
2023/10/11 14:10:27;;;;;;;4.18;1.75;;;;;;;4.24;55.66;97054.53;6301413;28;20553;-67
2023/10/11 14:13:38;;;;;;;1.83;1.20;;;;;;;4.22;55.93;97057.22;6301373;28;20036;-67
2023/10/11 14:16:41;;;;;;;1.25;1.15;;;;;;;4.14;55.86;97055.81;6284023;28;20044;-68
2023/10/11 14:19:45;;;;;;;10.52;1.52;;;;;;;4.15;56.09;97070.50;6301684;28;20446;-68
2023/10/11 14:22:46;;;;;;;;;;;;;;;4.24;55.44;97067.56;6302510;28;20035;-68
2023/10/11 14:25:57;;;;;;;1.75;1.40;;;;;;;4.41;55.47;97069.56;6301704;28;20284;-68
2023/10/11 14:29:07;;;;;;;2.67;2.10;;;;;;;4.40;54.88;97068.72;6301640;28;20136;-67
2023/10/11 14:32:12;;;;;;;2.17;1.52;;;;;;;4.43;55.09;97075.56;6301738;28;20076;-67
2023/10/11 14:35:16;;;;;;;2.70;1.53;;;;;;;4.38;54.74;97073.13;6301100;28;20044;-68
2023/10/11 14:38:22;;;;;;;1.95;1.27;;;;;;;4.26;54.83;97065.75;6301585;28;20454;-68
2023/10/11 14:41:29;;;;;;;1.55;1.10;;;;;;;4.22;55.40;97072.00;6301479;28;20040;-68
2023/10/11 14:44:36;;;;;;;2.67;1.38;;;;;;;4.18;55.58;97080.81;6301363;28;20393;-67
2023/10/11 14:47:47;;;;;;;1.38;1.17;;;;;;;3.99;56.05;97078.88;6300260;28;20147;-68
2023/10/11 14:50:54;;;;;;;3.08;1.80;;;;;;;3.84;56.47;97089.81;6301329;28;20040;-68
2023/10/11 14:53:58;;;;;;;2.92;2.45;;;;;;;3.85;56.76;97095.88;6301393;28;20041;-67
2023/10/11 14:57:03;;;;;;;2.83;1.65;;;;;;;3.82;56.75;97104.63;6301386;28;20522;-67
2023/10/11 15:00:06;;;;;;;2.78;2.00;;;;;;;3.85;57.10;97101.94;6297304;28;20056;-68
2023/10/11 15:03:12;;;;;;;3.58;2.33;;;;;;;3.69;57.42;97105.97;6296361;28;20118;-68
2023/10/11 15:06:19;;;;;;;3.65;2.58;;;;;;;3.56;57.60;97095.09;6297030;28;20078;-67
2023/10/11 15:09:23;;;;;;;4.93;2.45;;;;;;;3.46;58.09;97098.94;6297076;28;20411;-67
2023/10/11 15:12:28;;;;;;;2.72;1.45;;;;;;;3.48;58.08;97097.97;6297019;28;20056;-68